createdAt,value
2018-03-20T00:00:11.722Z,49.98
2018-03-20T00:00:37.875Z,49.98
2018-03-20T00:01:04.031Z,49.79
2018-03-20T00:01:30.163Z,49.79
2018-03-20T00:01:56.305Z,49.5
2018-03-20T00:02:22.441Z,49.88
2018-03-20T00:02:48.576Z,49.88
2018-03-20T00:03:14.708Z,49.69
2018-03-20T00:03:40.847Z,49.88
2018-03-20T00:04:06.982Z,50.07
2018-03-20T00:04:33.115Z,50.16
2018-03-20T00:04:59.285Z,50.16
2018-03-20T00:05:25.418Z,49.88
2018-03-20T00:05:51.555Z,50.07
2018-03-20T00:06:17.686Z,49.98
2018-03-20T00:06:43.849Z,50.45
2018-03-20T00:07:09.978Z,50.35
2018-03-20T00:07:36.143Z,50.07
2018-03-20T00:08:02.277Z,50.35
2018-03-20T00:08:28.414Z,50.45
2018-03-20T00:08:54.565Z,50.54
2018-03-20T00:09:20.727Z,50.35
2018-03-20T00:09:46.862Z,50.54
2018-03-20T00:10:13.001Z,50.35
2018-03-20T00:10:39.141Z,50.07
2018-03-20T00:11:05.271Z,50.35
2018-03-20T00:11:31.412Z,50.07
2018-03-20T00:11:57.542Z,50.16
2018-03-20T00:12:23.680Z,50.54
2018-03-20T00:12:49.813Z,50.35
2018-03-20T00:13:15.949Z,50.45
2018-03-20T00:13:42.089Z,50.73
2018-03-20T00:14:08.218Z,50.82
2018-03-20T00:14:34.362Z,50.35
2018-03-20T00:15:00.493Z,50.82
2018-03-20T00:15:26.629Z,50.45
2018-03-20T00:15:52.754Z,50.63
2018-03-20T00:16:18.884Z,50.82
2018-03-20T00:16:45.019Z,51.01
2018-03-20T00:17:11.157Z,51.01
2018-03-20T00:17:37.290Z,51.49
2018-03-20T00:18:03.427Z,51.2
2018-03-20T00:18:29.560Z,51.58
2018-03-20T00:18:55.694Z,50.73
2018-03-20T00:19:21.826Z,50.92
2018-03-20T00:19:47.963Z,51.01
2018-03-20T00:20:14.097Z,50.92
2018-03-20T00:20:40.226Z,51.01
2018-03-20T00:21:06.363Z,51.01
2018-03-20T00:21:32.497Z,50.92
2018-03-20T00:21:58.633Z,50.82
2018-03-20T00:22:24.787Z,51.01
2018-03-20T00:22:50.917Z,50.82
2018-03-20T00:23:17.051Z,51.68
2018-03-20T00:23:43.190Z,51.58
2018-03-20T00:24:09.324Z,51.68
2018-03-20T00:24:35.477Z,51.49
2018-03-20T00:25:01.612Z,51.11
2018-03-20T00:25:27.745Z,50.82
2018-03-20T00:25:53.910Z,50.82
2018-03-20T00:26:20.038Z,51.58
2018-03-20T00:26:46.175Z,51.58
2018-03-20T00:27:12.317Z,51.58
2018-03-20T00:27:38.453Z,51.68
2018-03-20T00:28:04.584Z,50.82
2018-03-20T00:28:30.742Z,50.73
2018-03-20T00:28:56.877Z,50.73
2018-03-20T00:29:23.008Z,51.49
2018-03-20T00:29:49.153Z,51.39
2018-03-20T00:30:15.286Z,51.39
2018-03-20T00:30:41.423Z,51.58
2018-03-20T00:31:07.551Z,51.39
2018-03-20T00:31:33.689Z,50.92
2018-03-20T00:31:59.831Z,50.82
2018-03-20T00:32:25.960Z,50.54
2018-03-20T00:32:52.094Z,50.45
2018-03-20T00:33:18.231Z,50.73
2018-03-20T00:33:44.364Z,50.82
2018-03-20T00:34:10.503Z,50.82
2018-03-20T00:34:36.660Z,50.92
2018-03-20T00:35:02.798Z,50.73
2018-03-20T00:35:28.936Z,50.73
2018-03-20T00:35:55.065Z,50.73
2018-03-20T00:36:21.201Z,50.92
2018-03-20T00:36:47.335Z,51.01
2018-03-20T00:37:13.469Z,51.49
2018-03-20T00:37:39.631Z,51.49
2018-03-20T00:38:05.764Z,51.68
2018-03-20T00:38:31.901Z,51.68
2018-03-20T00:38:58.043Z,51.01
2018-03-20T00:39:24.192Z,50.92
2018-03-20T00:39:50.324Z,51.11
2018-03-20T00:40:16.460Z,51.39
2018-03-20T00:40:42.594Z,51.39
2018-03-20T00:41:08.735Z,51.39
2018-03-20T00:41:34.892Z,51.2
2018-03-20T00:42:01.022Z,51.68
2018-03-20T00:42:27.162Z,51.58
2018-03-20T00:42:53.296Z,51.68
2018-03-20T00:43:19.435Z,51.01
2018-03-20T00:43:45.565Z,50.54
2018-03-20T00:44:11.700Z,50.45
2018-03-20T00:44:37.827Z,50.92
2018-03-20T00:45:03.962Z,50.82
2018-03-20T00:45:30.096Z,50.92
2018-03-20T00:45:56.241Z,50.92
2018-03-20T00:46:22.367Z,50.92
2018-03-20T00:46:48.503Z,51.68
2018-03-20T00:47:14.665Z,51.49
2018-03-20T00:47:40.800Z,51.3
2018-03-20T00:48:06.936Z,51.3
2018-03-20T00:48:33.063Z,51.3
2018-03-20T00:48:59.226Z,51.2
2018-03-20T00:49:25.396Z,51.3
2018-03-20T00:49:51.496Z,51.39
2018-03-20T00:50:17.651Z,51.2
2018-03-20T00:50:43.790Z,51.49
2018-03-20T00:51:09.945Z,51.49
2018-03-20T00:51:36.077Z,51.68
2018-03-20T00:52:02.216Z,51.58
2018-03-20T00:52:28.348Z,51.58
2018-03-20T00:52:54.478Z,51.3
2018-03-20T00:53:20.616Z,50.92
2018-03-20T00:53:46.750Z,50.82
2018-03-20T00:54:12.887Z,50.92
2018-03-20T00:54:39.049Z,51.01
2018-03-20T00:55:05.180Z,50.73
2018-03-20T00:55:31.309Z,50.92
2018-03-20T00:55:57.447Z,50.92
2018-03-20T00:56:23.583Z,50.73
2018-03-20T00:56:49.779Z,50.73
2018-03-20T00:57:15.869Z,50.73
2018-03-20T00:57:42.002Z,50.35
2018-03-20T00:58:08.141Z,50.54
2018-03-20T00:58:34.274Z,50.54
2018-03-20T00:59:00.439Z,50.63
2018-03-20T00:59:26.566Z,50.73
2018-03-20T00:59:52.704Z,50.54
2018-03-20T01:00:18.830Z,50.35
2018-03-20T01:00:44.965Z,50.35
2018-03-20T01:01:11.100Z,50.54
2018-03-20T01:01:37.234Z,50.35
2018-03-20T01:02:03.371Z,50.54
2018-03-20T01:02:29.526Z,50.63
2018-03-20T01:02:55.663Z,51.58
2018-03-20T01:03:21.797Z,51.39
2018-03-20T01:03:47.930Z,51.39
2018-03-20T01:04:14.065Z,51.77
2018-03-20T01:04:40.197Z,51.96
2018-03-20T01:05:06.337Z,52.06
2018-03-20T01:05:32.471Z,52.06
2018-03-20T01:05:58.605Z,52.15
2018-03-20T01:06:24.739Z,51.68
2018-03-20T01:06:50.874Z,51.61
2018-03-20T01:07:17.012Z,51.39
2018-03-20T01:07:43.141Z,51.42
2018-03-20T01:08:09.280Z,51.32
2018-03-20T01:08:35.413Z,51.89
2018-03-20T01:09:01.558Z,51.61
2018-03-20T01:09:27.694Z,51.32
2018-03-20T01:09:53.824Z,51.23
2018-03-20T01:10:19.960Z,51.32
2018-03-20T01:10:46.099Z,51.61
2018-03-20T01:11:12.237Z,51.99
2018-03-20T01:11:38.367Z,51.14
2018-03-20T01:12:04.503Z,51.89
2018-03-20T01:12:30.636Z,51.8
2018-03-20T01:12:56.796Z,51.32
2018-03-20T01:13:22.925Z,51.42
2018-03-20T01:13:49.064Z,51.23
2018-03-20T01:14:15.198Z,51.51
2018-03-20T01:14:41.336Z,51.04
2018-03-20T01:15:07.468Z,51.04
2018-03-20T01:15:33.599Z,50.76
2018-03-20T01:15:59.732Z,50.38
2018-03-20T01:16:25.878Z,50.66
2018-03-20T01:16:52.001Z,50.85
2018-03-20T01:17:18.141Z,50.38
2018-03-20T01:17:44.272Z,50.57
2018-03-20T01:18:10.404Z,51.04
2018-03-20T01:18:36.537Z,50.76
2018-03-20T01:19:02.677Z,50.95
2018-03-20T01:19:28.812Z,51.23
2018-03-20T01:19:54.951Z,51.61
2018-03-20T01:20:21.082Z,51.61
2018-03-20T01:20:47.213Z,51.42
2018-03-20T01:21:13.347Z,51.23
2018-03-20T01:21:39.488Z,51.23
2018-03-20T01:22:05.620Z,51.51
2018-03-20T01:22:31.757Z,51.51
2018-03-20T01:22:57.887Z,51.61
2018-03-20T01:23:24.035Z,51.7
2018-03-20T01:23:50.158Z,51.32
2018-03-20T01:24:16.289Z,51.23
2018-03-20T01:24:42.427Z,51.04
2018-03-20T01:25:08.566Z,51.42
2018-03-20T01:25:34.701Z,51.23
2018-03-20T01:26:00.838Z,51.23
2018-03-20T01:26:26.965Z,51.89
2018-03-20T01:26:53.148Z,52.08
2018-03-20T01:27:19.286Z,51.99
2018-03-20T01:27:45.431Z,52.08
2018-03-20T01:28:11.566Z,52.37
2018-03-20T01:28:37.706Z,52.37
2018-03-20T01:29:03.837Z,52.18
2018-03-20T01:29:29.973Z,52.18
2018-03-20T01:29:56.104Z,52.27
2018-03-20T01:30:22.236Z,52.27
2018-03-20T01:30:48.371Z,52.94
2018-03-20T01:31:14.508Z,52.56
2018-03-20T01:31:40.640Z,52.75
2018-03-20T01:32:06.782Z,52.75
2018-03-20T01:32:32.915Z,52.65
2018-03-20T01:32:59.047Z,52.27
2018-03-20T01:33:25.211Z,52.46
2018-03-20T01:33:51.348Z,52.65
2018-03-20T01:34:17.490Z,52.65
2018-03-20T01:34:43.644Z,52.37
2018-03-20T01:35:09.783Z,52.94
2018-03-20T01:35:35.923Z,51.89
2018-03-20T01:36:02.074Z,52.27
2018-03-20T01:36:28.215Z,51.99
2018-03-20T01:36:54.344Z,52.27
2018-03-20T01:37:20.506Z,52.18
2018-03-20T01:37:46.640Z,51.8
2018-03-20T01:38:12.771Z,52.18
2018-03-20T01:38:38.906Z,51.99
2018-03-20T01:39:05.047Z,51.8
2018-03-20T01:39:31.205Z,52.08
2018-03-20T01:39:57.340Z,51.89
2018-03-20T01:40:23.467Z,52.37
2018-03-20T01:40:49.645Z,51.89
2018-03-20T01:41:15.873Z,51.7
2018-03-20T01:41:42.019Z,51.51
2018-03-20T01:42:08.174Z,51.51
2018-03-20T01:42:34.312Z,51.61
2018-03-20T01:43:00.446Z,52.18
2018-03-20T01:43:26.577Z,52.18
2018-03-20T01:43:52.731Z,52.08
2018-03-20T01:44:18.864Z,52.46
2018-03-20T01:44:44.994Z,52.56
2018-03-20T01:45:11.132Z,53.13
2018-03-20T01:45:37.266Z,53.5
2018-03-20T01:46:03.404Z,53.22
2018-03-20T01:46:29.542Z,53.5
2018-03-20T01:46:55.676Z,53.78
2018-03-20T01:47:21.819Z,53.78
2018-03-20T01:47:47.948Z,53.97
2018-03-20T01:48:14.087Z,53.78
2018-03-20T01:48:40.217Z,53.5
2018-03-20T01:49:06.358Z,53.78
2018-03-20T01:49:32.488Z,54.07
2018-03-20T01:49:58.629Z,53.88
2018-03-20T01:50:24.754Z,54.07
2018-03-20T01:50:50.888Z,54.45
2018-03-20T01:51:17.026Z,54.45
2018-03-20T01:51:43.163Z,54.74
2018-03-20T01:52:09.294Z,54.83
2018-03-20T01:52:35.450Z,54.83
2018-03-20T01:53:01.590Z,55.49
2018-03-20T01:53:27.724Z,56.25
2018-03-20T01:53:53.857Z,56.25
2018-03-20T01:54:19.994Z,57.01
2018-03-20T01:54:46.130Z,56.91
2018-03-20T01:55:12.262Z,56.63
2018-03-20T01:55:38.394Z,56.63
2018-03-20T01:56:04.531Z,57.39
2018-03-20T01:56:30.671Z,56.91
2018-03-20T01:56:56.802Z,57.01
2018-03-20T01:57:22.940Z,56.06
2018-03-20T01:57:49.072Z,56.53
2018-03-20T01:58:15.202Z,56.91
2018-03-20T01:58:41.340Z,57.01
2018-03-20T01:59:07.480Z,57.1
2018-03-20T01:59:33.607Z,57.29
2018-03-20T01:59:59.748Z,57.01
2018-03-20T02:00:25.875Z,56.72
2018-03-20T02:00:52.015Z,56.91
2018-03-20T02:01:18.143Z,57.2
2018-03-20T02:01:44.282Z,56.91
2018-03-20T02:02:10.415Z,56.91
2018-03-20T02:02:36.556Z,57.76
2018-03-20T02:03:02.692Z,57.95
2018-03-20T02:03:28.824Z,58.24
2018-03-20T02:03:54.967Z,58.9
2018-03-20T02:04:21.104Z,58.43
2018-03-20T02:04:47.236Z,58.14
2018-03-20T02:05:13.371Z,58.24
2018-03-20T02:05:39.535Z,58.33
2018-03-20T02:06:05.667Z,58.71
2018-03-20T02:06:31.804Z,58.05
2018-03-20T02:06:57.941Z,58.14
2018-03-20T02:07:24.076Z,57.95
2018-03-20T02:07:50.209Z,57.86
2018-03-20T02:08:16.351Z,57.48
2018-03-20T02:08:42.486Z,57.48
2018-03-20T02:09:08.621Z,57.86
2018-03-20T02:09:34.760Z,57.57
2018-03-20T02:10:00.896Z,57.39
2018-03-20T02:10:27.034Z,57.2
2018-03-20T02:10:53.192Z,57.86
2018-03-20T02:11:19.344Z,57.48
2018-03-20T02:11:45.476Z,57.57
2018-03-20T02:12:11.628Z,57.39
2018-03-20T02:12:37.760Z,57.86
2018-03-20T02:13:03.906Z,57.76
2018-03-20T02:13:30.033Z,57.76
2018-03-20T02:13:56.166Z,57.86
2018-03-20T02:14:22.302Z,57.76
2018-03-20T02:14:48.454Z,57.95
2018-03-20T02:15:14.591Z,57.76
2018-03-20T02:15:40.729Z,57.86
2018-03-20T02:16:06.861Z,57.86
2018-03-20T02:16:32.993Z,57.95
2018-03-20T02:16:59.135Z,58.24
2018-03-20T02:17:25.266Z,58.81
2018-03-20T02:17:51.452Z,58.52
2018-03-20T02:18:17.587Z,58.9
2018-03-20T02:18:43.723Z,58.52
2018-03-20T02:19:09.858Z,59.09
2018-03-20T02:19:36.017Z,59.56
2018-03-20T02:20:02.153Z,59.66
2018-03-20T02:20:28.292Z,59.66
2018-03-20T02:20:54.451Z,60.41
2018-03-20T02:21:20.595Z,59.84
2018-03-20T02:21:46.732Z,59.28
2018-03-20T02:22:12.866Z,59.47
2018-03-20T02:22:39.000Z,59.38
2018-03-20T02:23:05.165Z,59.66
2018-03-20T02:23:31.300Z,60.41
2018-03-20T02:23:57.430Z,60.13
2018-03-20T02:24:23.565Z,59.75
2018-03-20T02:24:49.705Z,59.84
2018-03-20T02:25:15.840Z,60.22
2018-03-20T02:25:41.970Z,60.22
2018-03-20T02:26:08.104Z,60.51
2018-03-20T02:26:34.233Z,60.89
2018-03-20T02:27:00.373Z,61.46
2018-03-20T02:27:26.506Z,61.65
2018-03-20T02:27:52.643Z,62.02
2018-03-20T02:28:18.775Z,62.02
2018-03-20T02:28:44.914Z,62.21
2018-03-20T02:29:11.044Z,62.4
2018-03-20T02:29:37.176Z,62.31
2018-03-20T02:30:03.343Z,62.5
2018-03-20T02:30:29.505Z,62.31
2018-03-20T02:30:55.639Z,62.69
2018-03-20T02:31:21.772Z,63.07
2018-03-20T02:31:47.932Z,62.78
2018-03-20T02:32:14.066Z,62.5
2018-03-20T02:32:40.203Z,62.5
2018-03-20T02:33:06.329Z,63.16
2018-03-20T02:33:32.488Z,63.16
2018-03-20T02:33:58.627Z,63.07
2018-03-20T02:34:24.777Z,63.26
2018-03-20T02:34:50.890Z,63.35
2018-03-20T02:35:17.024Z,63.92
2018-03-20T02:35:43.162Z,63.07
2018-03-20T02:36:09.298Z,63.07
2018-03-20T02:36:35.458Z,63.73
2018-03-20T02:37:01.594Z,63.92
2018-03-20T02:37:27.728Z,63.82
2018-03-20T02:37:53.862Z,63.16
2018-03-20T02:38:20.005Z,63.92
2018-03-20T02:38:46.134Z,63.82
2018-03-20T02:39:12.301Z,63.92
2018-03-20T02:39:38.432Z,64.11
2018-03-20T02:40:04.573Z,64.01
2018-03-20T02:40:30.703Z,64.49
2018-03-20T02:40:56.834Z,64.2
2018-03-20T02:41:22.995Z,64.3
2018-03-20T02:41:49.146Z,64.2
2018-03-20T02:42:15.270Z,63.92
2018-03-20T02:42:41.421Z,64.3
2018-03-20T02:43:07.559Z,64.3
2018-03-20T02:43:33.699Z,64.2
2018-03-20T02:43:59.833Z,63.82
2018-03-20T02:44:25.969Z,63.82
2018-03-20T02:44:52.104Z,64.2
2018-03-20T02:45:18.240Z,64.2
2018-03-20T02:45:44.373Z,64.58
2018-03-20T02:46:10.506Z,64.39
2018-03-20T02:46:36.661Z,63.92
2018-03-20T02:47:02.825Z,63.92
2018-03-20T02:47:28.956Z,64.2
2018-03-20T02:47:55.089Z,64.01
2018-03-20T02:48:21.221Z,64.49
2018-03-20T02:48:47.383Z,64.96
2018-03-20T02:49:13.525Z,65.15
2018-03-20T02:49:39.662Z,65.44
2018-03-20T02:50:05.818Z,66
2018-03-20T02:50:31.948Z,67.33
2018-03-20T02:50:58.093Z,68.46
2018-03-20T02:51:24.227Z,68.75
2018-03-20T02:51:50.369Z,69.32
2018-03-20T02:52:16.505Z,69.32
2018-03-20T02:52:42.640Z,70.74
2018-03-20T02:53:08.774Z,70.93
2018-03-20T02:53:34.924Z,71.78
2018-03-20T02:54:01.047Z,72.44
2018-03-20T02:54:27.182Z,73.01
2018-03-20T02:54:53.341Z,73.11
2018-03-20T02:55:19.494Z,73.68
2018-03-20T02:55:45.655Z,73.3
2018-03-20T02:56:11.796Z,73.77
2018-03-20T02:56:37.926Z,73.11
2018-03-20T02:57:04.090Z,73.2
2018-03-20T02:57:30.236Z,73.39
2018-03-20T02:57:56.368Z,72.63
2018-03-20T02:58:22.505Z,73.3
2018-03-20T02:58:48.665Z,73.3
2018-03-20T02:59:14.824Z,73.2
2018-03-20T02:59:40.954Z,73.2
2018-03-20T03:00:07.084Z,73.86
2018-03-20T03:00:33.241Z,73.86
2018-03-20T03:00:59.359Z,74.52
2018-03-20T03:01:25.490Z,74.9
2018-03-20T03:01:51.649Z,75.95
2018-03-20T03:02:17.833Z,75.85
2018-03-20T03:02:43.962Z,76.89
2018-03-20T03:03:10.094Z,76.89
2018-03-20T03:03:36.231Z,77.08
2018-03-20T03:04:02.364Z,77.84
2018-03-20T03:04:28.497Z,78.41
2018-03-20T03:04:54.633Z,78.31
2018-03-20T03:05:20.765Z,78.5
2018-03-20T03:05:46.962Z,79.26
2018-03-20T03:06:13.085Z,79.36
2018-03-20T03:06:39.222Z,79.64
2018-03-20T03:07:05.382Z,80.02
2018-03-20T03:07:31.519Z,80.49
2018-03-20T03:07:57.646Z,81.06
2018-03-20T03:08:23.808Z,81.25
2018-03-20T03:08:49.973Z,81.44
2018-03-20T03:09:16.105Z,81.72
2018-03-20T03:09:42.246Z,82.01
2018-03-20T03:10:08.384Z,82.76
2018-03-20T03:10:34.518Z,83.14
2018-03-20T03:11:00.654Z,83.71
2018-03-20T03:11:26.785Z,83.9
2018-03-20T03:11:52.918Z,84.28
2018-03-20T03:12:19.066Z,84.38
2018-03-20T03:12:45.213Z,84.85
2018-03-20T03:13:11.348Z,85.32
2018-03-20T03:13:37.485Z,85.51
2018-03-20T03:14:03.647Z,85.04
2018-03-20T03:14:29.781Z,85.32
2018-03-20T03:14:55.916Z,85.42
2018-03-20T03:15:22.049Z,85.99
2018-03-20T03:15:48.210Z,86.74
2018-03-20T03:16:14.340Z,86.55
2018-03-20T03:16:40.477Z,86.65
2018-03-20T03:17:06.632Z,87.02
2018-03-20T03:17:32.763Z,87.31
2018-03-20T03:17:58.901Z,88.26
2018-03-20T03:18:25.034Z,88.35
2018-03-20T03:18:51.164Z,89.11
2018-03-20T03:19:17.300Z,89.01
2018-03-20T03:19:43.443Z,89.49
2018-03-20T03:20:09.587Z,89.87
2018-03-20T03:20:35.707Z,90.06
2018-03-20T03:21:01.847Z,89.87
2018-03-20T03:21:27.980Z,90.34
2018-03-20T03:21:54.135Z,90.91
2018-03-20T03:22:20.270Z,90.72
2018-03-20T03:22:46.410Z,91.29
2018-03-20T03:23:12.545Z,91.48
2018-03-20T03:23:38.674Z,91.86
2018-03-20T03:24:04.811Z,92.43
2018-03-20T03:24:30.955Z,92.14
2018-03-20T03:24:57.087Z,92.66
2018-03-20T03:25:23.212Z,92.94
2018-03-20T03:25:49.349Z,93.37
2018-03-20T03:26:15.509Z,93.61
2018-03-20T03:26:41.643Z,93.51
2018-03-20T03:27:07.773Z,93.37
2018-03-20T03:27:33.909Z,92.61
2018-03-20T03:28:00.044Z,93.27
2018-03-20T03:28:26.181Z,93.89
2018-03-20T03:28:52.311Z,94.37
2018-03-20T03:29:18.448Z,94.18
2018-03-20T03:29:44.583Z,94.08
2018-03-20T03:30:10.728Z,94.08
2018-03-20T03:30:36.857Z,94.37
2018-03-20T03:31:02.994Z,94.56
2018-03-20T03:31:29.127Z,94.65
2018-03-20T03:31:55.258Z,94.93
2018-03-20T03:32:21.392Z,95.31
2018-03-20T03:32:47.550Z,95.69
2018-03-20T03:33:13.660Z,96.54
2018-03-20T03:33:39.794Z,96.21
2018-03-20T03:34:05.930Z,96.59
2018-03-20T03:34:32.085Z,96.69
2018-03-20T03:34:58.214Z,96.59
2018-03-20T03:35:24.372Z,96.4
2018-03-20T03:35:50.505Z,96.12
2018-03-20T03:36:16.639Z,95.83
2018-03-20T03:36:42.775Z,96.12
2018-03-20T03:37:08.914Z,95.93
2018-03-20T03:37:35.064Z,95.83
2018-03-20T03:38:01.229Z,95.64
2018-03-20T03:38:27.359Z,96.12
2018-03-20T03:38:53.493Z,95.55
2018-03-20T03:39:19.630Z,95.74
2018-03-20T03:39:45.789Z,95.64
2018-03-20T03:40:11.929Z,95.26
2018-03-20T03:40:38.064Z,94.89
2018-03-20T03:41:04.193Z,94.7
2018-03-20T03:41:30.354Z,95.36
2018-03-20T03:41:56.488Z,95.07
2018-03-20T03:42:22.618Z,95.83
2018-03-20T03:42:48.753Z,95.74
2018-03-20T03:43:14.886Z,95.83
2018-03-20T03:43:41.060Z,95.45
2018-03-20T03:44:07.203Z,95.83
2018-03-20T03:44:33.344Z,95.55
2018-03-20T03:44:59.479Z,95.26
2018-03-20T03:45:25.624Z,95.55
2018-03-20T03:45:51.753Z,95.26
2018-03-20T03:46:17.910Z,95.83
2018-03-20T03:46:44.043Z,95.74
2018-03-20T03:47:10.203Z,95.07
2018-03-20T03:47:36.350Z,95.83
2018-03-20T03:48:02.482Z,96.02
2018-03-20T03:48:28.641Z,95.83
2018-03-20T03:48:54.771Z,96.02
2018-03-20T03:49:20.909Z,95.36
2018-03-20T03:49:47.046Z,94.79
2018-03-20T03:50:13.182Z,95.17
2018-03-20T03:50:39.313Z,95.26
2018-03-20T03:51:05.447Z,95.26
2018-03-20T03:51:31.608Z,94.89
2018-03-20T03:51:57.739Z,95.07
2018-03-20T03:52:23.875Z,95.64
2018-03-20T03:52:50.013Z,95.74
2018-03-20T03:53:16.150Z,95.64
2018-03-20T03:53:42.288Z,95.07
2018-03-20T03:54:08.424Z,95.07
2018-03-20T03:54:34.561Z,94.89
2018-03-20T03:55:00.692Z,94.98
2018-03-20T03:55:26.831Z,94.89
2018-03-20T03:55:52.963Z,95.07
2018-03-20T03:56:19.099Z,95.83
2018-03-20T03:56:45.240Z,95.83
2018-03-20T03:57:11.370Z,95.64
2018-03-20T03:57:37.510Z,95.17
2018-03-20T03:58:03.645Z,95.36
2018-03-20T03:58:29.807Z,95.07
2018-03-20T03:58:55.964Z,94.7
2018-03-20T03:59:22.096Z,94.98
2018-03-20T03:59:48.259Z,94.79
2018-03-20T04:00:14.390Z,94.79
2018-03-20T04:00:40.528Z,94.89
2018-03-20T04:01:06.666Z,94.32
2018-03-20T04:01:32.828Z,94.7
2018-03-20T04:01:58.968Z,94.7
2018-03-20T04:02:25.103Z,94.7
2018-03-20T04:02:51.244Z,95.17
2018-03-20T04:03:17.405Z,94.89
2018-03-20T04:03:43.541Z,94.51
2018-03-20T04:04:09.670Z,94.79
2018-03-20T04:04:35.809Z,95.07
2018-03-20T04:05:01.944Z,94.93
2018-03-20T04:05:28.078Z,94.7
2018-03-20T04:05:54.211Z,94.42
2018-03-20T04:06:20.367Z,94.51
2018-03-20T04:06:46.508Z,94.04
2018-03-20T04:07:12.659Z,94.04
2018-03-20T04:07:38.789Z,94.04
2018-03-20T04:08:04.921Z,94.23
2018-03-20T04:08:31.061Z,94.27
2018-03-20T04:08:57.216Z,94.04
2018-03-20T04:09:23.353Z,94.08
2018-03-20T04:09:49.491Z,94.37
2018-03-20T04:10:15.631Z,94.74
2018-03-20T04:10:41.766Z,94.46
2018-03-20T04:11:07.897Z,94.56
2018-03-20T04:11:34.033Z,94.27
2018-03-20T04:12:00.166Z,94.18
2018-03-20T04:12:26.328Z,94.65
2018-03-20T04:12:52.460Z,94.74
2018-03-20T04:13:18.592Z,94.27
2018-03-20T04:13:44.725Z,94.08
2018-03-20T04:14:10.868Z,93.8
2018-03-20T04:14:37.003Z,93.61
2018-03-20T04:15:03.141Z,93.32
2018-03-20T04:15:29.277Z,93.04
2018-03-20T04:15:55.416Z,93.04
2018-03-20T04:16:21.550Z,93.23
2018-03-20T04:16:47.689Z,93.04
2018-03-20T04:17:13.825Z,92.85
2018-03-20T04:17:39.955Z,93.04
2018-03-20T04:18:06.092Z,92.94
2018-03-20T04:18:32.227Z,93.61
2018-03-20T04:18:58.359Z,93.51
2018-03-20T04:19:24.499Z,93.04
2018-03-20T04:19:50.633Z,92.38
2018-03-20T04:20:16.771Z,92.76
2018-03-20T04:20:42.903Z,92.76
2018-03-20T04:21:09.033Z,92.94
2018-03-20T04:21:35.178Z,92.76
2018-03-20T04:22:01.340Z,92.57
2018-03-20T04:22:27.477Z,92.66
2018-03-20T04:22:53.609Z,92.57
2018-03-20T04:23:19.739Z,92.57
2018-03-20T04:23:45.870Z,92.47
2018-03-20T04:24:12.005Z,92.76
2018-03-20T04:24:38.147Z,92.57
2018-03-20T04:25:04.308Z,92.66
2018-03-20T04:25:30.464Z,92.57
2018-03-20T04:25:56.597Z,92.57
2018-03-20T04:26:22.728Z,92.76
2018-03-20T04:26:48.922Z,92.66
2018-03-20T04:27:14.998Z,92.76
2018-03-20T04:27:41.135Z,92.66
2018-03-20T04:28:07.263Z,92.66
2018-03-20T04:28:33.429Z,92.66
2018-03-20T04:28:59.564Z,93.13
2018-03-20T04:29:25.717Z,93.42
2018-03-20T04:29:51.840Z,93.42
2018-03-20T04:30:17.997Z,93.42
2018-03-20T04:30:44.139Z,93.42
2018-03-20T04:31:10.277Z,93.13
2018-03-20T04:31:36.427Z,92.76
2018-03-20T04:32:02.565Z,93.13
2018-03-20T04:32:28.698Z,93.13
2018-03-20T04:32:54.836Z,92.94
2018-03-20T04:33:20.968Z,93.23
2018-03-20T04:33:47.107Z,93.04
2018-03-20T04:34:13.240Z,92.85
2018-03-20T04:34:39.378Z,92.57
2018-03-20T04:35:05.514Z,93.61
2018-03-20T04:35:31.652Z,93.04
2018-03-20T04:35:57.794Z,93.04
2018-03-20T04:36:23.930Z,92.94
2018-03-20T04:36:50.084Z,93.04
2018-03-20T04:37:16.217Z,93.04
2018-03-20T04:37:42.344Z,93.04
2018-03-20T04:38:08.481Z,92.85
2018-03-20T04:38:34.624Z,93.42
2018-03-20T04:39:00.758Z,93.04
2018-03-20T04:39:26.890Z,92.66
2018-03-20T04:39:53.071Z,93.23
2018-03-20T04:40:19.199Z,93.23
2018-03-20T04:40:45.340Z,93.61
2018-03-20T04:41:11.470Z,93.42
2018-03-20T04:41:37.603Z,93.89
2018-03-20T04:42:03.743Z,93.8
2018-03-20T04:42:29.876Z,94.37
2018-03-20T04:42:56.011Z,93.8
2018-03-20T04:43:22.145Z,93.89
2018-03-20T04:43:48.284Z,93.61
2018-03-20T04:44:14.420Z,93.99
2018-03-20T04:44:40.550Z,93.8
2018-03-20T04:45:06.690Z,93.8
2018-03-20T04:45:32.823Z,93.8
2018-03-20T04:45:58.957Z,93.8
2018-03-20T04:46:25.088Z,93.89
2018-03-20T04:46:51.251Z,93.89
2018-03-20T04:47:17.393Z,93.51
2018-03-20T04:47:43.528Z,93.51
2018-03-20T04:48:09.660Z,93.89
2018-03-20T04:48:35.801Z,93.61
2018-03-20T04:49:01.937Z,93.42
2018-03-20T04:49:28.068Z,93.23
2018-03-20T04:49:54.207Z,93.23
2018-03-20T04:50:20.345Z,93.04
2018-03-20T04:50:46.502Z,93.61
2018-03-20T04:51:12.638Z,93.42
2018-03-20T04:51:38.773Z,93.51
2018-03-20T04:52:04.908Z,93.23
2018-03-20T04:52:31.040Z,93.42
2018-03-20T04:52:57.182Z,93.51
2018-03-20T04:53:23.312Z,93.42
2018-03-20T04:53:49.449Z,93.51
2018-03-20T04:54:15.579Z,93.51
2018-03-20T04:54:41.722Z,93.32
2018-03-20T04:55:07.864Z,93.23
2018-03-20T04:55:33.996Z,93.32
2018-03-20T04:56:00.129Z,93.04
2018-03-20T04:56:26.260Z,93.32
2018-03-20T04:56:52.401Z,93.32
2018-03-20T04:57:18.530Z,93.7
2018-03-20T04:57:44.667Z,93.7
2018-03-20T04:58:10.799Z,93.23
2018-03-20T04:58:36.930Z,93.51
2018-03-20T04:59:03.077Z,93.42
2018-03-20T04:59:29.210Z,93.61
2018-03-20T04:59:55.342Z,94.18
2018-03-20T05:00:21.474Z,94.56
2018-03-20T05:00:47.617Z,94.27
2018-03-20T05:01:13.755Z,94.37
2018-03-20T05:01:39.887Z,94.37
2018-03-20T05:02:06.023Z,94.46
2018-03-20T05:02:32.158Z,94.37
2018-03-20T05:02:58.315Z,94.08
2018-03-20T05:03:24.450Z,94.37
2018-03-20T05:03:50.588Z,94.56
2018-03-20T05:04:16.748Z,93.8
2018-03-20T05:04:42.884Z,93.89
2018-03-20T05:05:09.056Z,93.89
2018-03-20T05:05:35.158Z,93.7
2018-03-20T05:06:01.317Z,93.23
2018-03-20T05:06:27.452Z,93.8
2018-03-20T05:06:53.585Z,94.08
2018-03-20T05:07:19.723Z,93.7
2018-03-20T05:07:45.859Z,93.99
2018-03-20T05:08:11.989Z,93.8
2018-03-20T05:08:38.134Z,93.8
2018-03-20T05:09:04.262Z,94.27
2018-03-20T05:09:30.398Z,93.99
2018-03-20T05:09:56.547Z,93.8
2018-03-20T05:10:22.681Z,94.18
2018-03-20T05:10:48.807Z,93.99
2018-03-20T05:11:14.944Z,93.99
2018-03-20T05:11:41.087Z,93.99
2018-03-20T05:12:07.239Z,94.18
2018-03-20T05:12:33.368Z,94.08
2018-03-20T05:12:59.501Z,93.8
2018-03-20T05:13:25.647Z,93.42
2018-03-20T05:13:51.778Z,93.51
2018-03-20T05:14:17.912Z,93.8
2018-03-20T05:14:44.046Z,93.99
2018-03-20T05:15:10.185Z,93.8
2018-03-20T05:15:36.323Z,94.37
2018-03-20T05:16:02.452Z,93.99
2018-03-20T05:16:28.587Z,94.37
2018-03-20T05:16:54.732Z,93.99
2018-03-20T05:17:20.871Z,93.8
2018-03-20T05:17:47.011Z,94.08
2018-03-20T05:18:13.148Z,93.8
2018-03-20T05:18:39.275Z,93.42
2018-03-20T05:19:05.414Z,93.89
2018-03-20T05:19:31.548Z,93.8
2018-03-20T05:19:57.682Z,93.89
2018-03-20T05:20:23.811Z,93.8
2018-03-20T05:20:49.950Z,93.7
2018-03-20T05:21:16.082Z,93.51
2018-03-20T05:21:42.224Z,93.51
2018-03-20T05:22:08.356Z,93.89
2018-03-20T05:22:34.495Z,93.99
2018-03-20T05:23:00.633Z,93.89
2018-03-20T05:23:26.769Z,93.8
2018-03-20T05:23:52.907Z,93.8
2018-03-20T05:24:19.044Z,93.99
2018-03-20T05:24:45.177Z,93.8
2018-03-20T05:25:11.316Z,93.99
2018-03-20T05:25:37.454Z,93.61
2018-03-20T05:26:03.585Z,93.61
2018-03-20T05:26:29.743Z,94.18
2018-03-20T05:26:55.906Z,93.42
2018-03-20T05:27:22.041Z,93.23
2018-03-20T05:27:48.183Z,93.51
2018-03-20T05:28:14.337Z,93.89
2018-03-20T05:28:40.498Z,93.51
2018-03-20T05:29:06.634Z,93.8
2018-03-20T05:29:32.772Z,93.61
2018-03-20T05:29:58.905Z,93.42
2018-03-20T05:30:25.041Z,93.04
2018-03-20T05:30:51.199Z,93.51
2018-03-20T05:31:17.334Z,92.94
2018-03-20T05:31:43.463Z,93.23
2018-03-20T05:32:09.632Z,93.08
2018-03-20T05:32:35.769Z,93.27
2018-03-20T05:33:01.902Z,93.18
2018-03-20T05:33:28.041Z,92.94
2018-03-20T05:33:54.177Z,93.13
2018-03-20T05:34:20.311Z,93.18
2018-03-20T05:34:46.446Z,92.57
2018-03-20T05:35:12.575Z,92.8
2018-03-20T05:35:38.715Z,92.66
2018-03-20T05:36:04.845Z,92.8
2018-03-20T05:36:30.979Z,92.9
2018-03-20T05:36:57.116Z,92.57
2018-03-20T05:37:23.268Z,92.76
2018-03-20T05:37:49.411Z,92.9